Time;durP1;ratioP1;P1;durP2;ratioP2;P2;SDS_P1;SDS_P2;PMS_P1;PMS_P2;Temp;Humidity;BMP_temperature;BMP_pressure;BME280_temperature;BME280_humidity;BME280_pressure;Samples;Min_cycle;Max_cycle;Signal;HPM_P1;HPM_P2
2022/07/24 00:00:15;;;;;;;7.22;5.53;;;23.10;86.60;;;;;;5002217;28;20029;-87
2022/07/24 00:02:42;;;;;;;9.73;5.65;;;23.00;86.90;;;;;;5006231;28;20022;-87
2022/07/24 00:05:08;;;;;;;7.68;5.40;;;23.00;87.10;;;;;;4998201;28;20108;-87
2022/07/24 00:07:36;;;;;;;7.20;5.70;;;23.00;87.40;;;;;;5024055;28;20468;-87
2022/07/24 00:10:04;;;;;;;9.82;6.63;;;23.00;87.60;;;;;;5010576;28;20025;-87
2022/07/24 00:12:30;;;;;;;8.70;5.95;;;22.90;87.70;;;;;;5016778;28;20399;-87
2022/07/24 00:14:56;;;;;;;7.63;5.93;;;22.90;87.90;;;;;;5015890;28;20019;-89
2022/07/24 00:17:21;;;;;;;6.78;5.68;;;22.90;88.00;;;;;;5000005;28;20390;-89
2022/07/24 00:19:47;;;;;;;8.77;5.65;;;22.80;88.20;;;;;;5001438;28;20061;-88
2022/07/24 00:22:13;;;;;;;7.60;6.38;;;22.80;88.40;;;;;;5033919;28;20057;-88
2022/07/24 00:24:38;;;;;;;9.57;6.97;;;22.80;88.60;;;;;;5017703;28;20020;-88
2022/07/24 00:27:04;;;;;;;8.48;6.53;;;22.70;88.70;;;;;;5028959;28;20087;-89
2022/07/24 00:29:30;;;;;;;9.05;7.45;;;22.70;88.80;;;;;;4987348;28;20035;-90
2022/07/24 00:31:55;;;;;;;8.13;6.80;;;22.70;89.20;;;;;;5001150;28;20080;-89
2022/07/24 00:34:21;;;;;;;9.05;7.35;;;22.60;89.30;;;;;;5019100;28;20009;-89
2022/07/24 00:36:47;;;;;;;8.30;7.13;;;22.60;89.40;;;;;;5001558;28;20548;-89
2022/07/24 00:39:12;;;;;;;8.77;7.50;;;22.60;89.60;;;;;;5005859;28;20022;-89
2022/07/24 00:41:38;;;;;;;10.43;7.75;;;22.60;89.70;;;;;;4977732;28;20026;-89
2022/07/24 00:44:13;;;;;;;9.60;7.53;;;22.50;90.10;;;;;;5016357;28;20056;-88
2022/07/24 00:46:42;;;;;;;9.00;6.88;;;22.50;90.00;;;;;;5017152;28;20076;-90
2022/07/24 00:49:10;;;;;;;11.88;7.28;;;22.50;90.10;;;;;;5016886;28;20067;-90
2022/07/24 00:51:36;;;;;;;10.85;7.47;;;22.50;90.20;;;;;;5004801;28;20059;-88
2022/07/24 00:54:07;;;;;;;10.45;7.10;;;22.40;90.30;;;;;;4999558;28;20108;-88
2022/07/24 00:56:32;;;;;;;8.48;7.50;;;22.40;90.40;;;;;;5015424;28;20041;-89
2022/07/24 00:59:00;;;;;;;8.85;7.03;;;22.40;90.40;;;;;;4984623;28;20026;-89
2022/07/24 01:01:26;;;;;;;10.45;7.43;;;22.40;90.50;;;;;;5015076;28;20021;-90
2022/07/24 01:03:51;;;;;;;10.77;7.63;;;22.40;90.60;;;;;;4995746;28;20034;-89
2022/07/24 01:06:19;;;;;;;9.55;7.35;;;22.30;90.70;;;;;;5013237;28;20040;-89
2022/07/24 01:08:45;;;;;;;13.85;7.80;;;22.30;90.70;;;;;;4999628;28;20487;-88
2022/07/24 01:11:11;;;;;;;8.65;7.75;;;22.30;90.80;;;;;;5016886;28;20026;-89
2022/07/24 01:13:38;;;;;;;8.85;7.80;;;22.30;90.80;;;;;;5032819;28;20025;-89
2022/07/24 01:16:04;;;;;;;9.10;7.38;;;22.20;90.80;;;;;;5033618;28;20037;-88
2022/07/24 01:18:29;;;;;;;9.52;7.47;;;22.20;90.90;;;;;;5016819;28;20065;-89
2022/07/24 01:20:55;;;;;;;9.63;7.22;;;22.20;90.90;;;;;;4997752;28;20056;-89
2022/07/24 01:23:22;;;;;;;9.00;7.95;;;22.10;90.90;;;;;;4997146;28;20079;-89
2022/07/24 01:25:47;;;;;;;9.23;7.43;;;22.10;91.00;;;;;;5014456;28;20030;-89
2022/07/24 01:28:13;;;;;;;9.25;7.53;;;22.10;91.00;;;;;;4998346;28;20041;-90
2022/07/24 01:30:39;;;;;;;10.43;7.90;;;22.10;91.00;;;;;;5001211;28;20026;-89
2022/07/24 01:33:04;;;;;;;8.82;7.50;;;22.00;91.20;;;;;;5001418;28;20483;-90
2022/07/24 01:35:30;;;;;;;8.90;7.20;;;22.00;91.20;;;;;;5002393;28;20058;-89
2022/07/24 01:37:56;;;;;;;10.32;8.00;;;22.00;91.20;;;;;;4996671;28;20041;-89
2022/07/24 01:40:22;;;;;;;9.98;8.00;;;22.00;91.30;;;;;;4999808;28;20116;-90
2022/07/24 01:42:48;;;;;;;10.50;7.78;;;21.90;91.30;;;;;;5016587;28;20156;-89
2022/07/24 01:45:14;;;;;;;10.43;8.23;;;21.90;91.40;;;;;;5016708;28;20109;-89
2022/07/24 01:47:41;;;;;;;10.55;7.80;;;21.90;91.40;;;;;;5032328;28;20546;-89
2022/07/24 01:50:07;;;;;;;9.52;7.72;;;21.90;91.50;;;;;;5000093;28;20029;-89
2022/07/24 01:52:32;;;;;;;9.23;7.45;;;21.90;91.60;;;;;;4994645;28;20072;-89
2022/07/24 01:54:58;;;;;;;9.65;7.53;;;21.80;91.60;;;;;;5015152;28;20112;-89
2022/07/24 01:57:24;;;;;;;9.70;7.00;;;21.80;91.70;;;;;;5013703;28;20037;-89
2022/07/24 01:59:49;;;;;;;10.55;8.13;;;21.80;92.00;;;;;;5011004;28;20030;-89
2022/07/24 02:02:15;;;;;;;12.32;7.80;;;21.80;91.70;;;;;;5000785;28;20116;-88
2022/07/24 02:04:41;;;;;;;10.00;7.93;;;21.80;91.70;;;;;;5015075;28;20029;-90
2022/07/24 02:07:07;;;;;;;10.95;7.32;;;21.70;91.70;;;;;;4996554;28;20037;-89
2022/07/24 02:09:32;;;;;;;8.90;7.47;;;21.70;91.70;;;;;;5012264;28;20022;-90
2022/07/24 02:11:58;;;;;;;9.77;7.47;;;21.70;91.70;;;;;;5004925;28;20026;-89
2022/07/24 02:14:24;;;;;;;11.50;8.15;;;21.70;91.80;;;;;;4988653;28;20025;-89
2022/07/24 02:16:49;;;;;;;10.52;7.88;;;21.70;91.90;;;;;;5035562;28;20057;-91
2022/07/24 02:19:15;;;;;;;11.27;7.68;;;21.60;91.80;;;;;;5029561;28;20026;-89
2022/07/24 02:21:41;;;;;;;9.68;7.03;;;21.60;91.80;;;;;;4994907;28;20049;-89
2022/07/24 02:24:07;;;;;;;9.93;7.55;;;21.60;91.80;;;;;;4997496;28;20499;-89
2022/07/24 02:26:32;;;;;;;8.63;6.95;;;21.60;91.90;;;;;;5001182;28;20034;-89
2022/07/24 02:28:58;;;;;;;9.50;7.03;;;21.50;91.90;;;;;;5020133;28;20099;-89
2022/07/24 02:31:24;;;;;;;13.52;7.53;;;21.50;91.90;;;;;;5003524;28;20047;-88
2022/07/24 02:33:49;;;;;;;9.07;6.80;;;21.50;91.90;;;;;;4998216;28;20383;-89
2022/07/24 02:36:15;;;;;;;10.75;7.35;;;21.50;92.00;;;;;;5016122;28;20034;-89
2022/07/24 02:38:41;;;;;;;10.95;7.57;;;21.40;92.00;;;;;;5011972;28;20014;-89
2022/07/24 02:41:08;;;;;;;8.70;7.45;;;21.40;92.10;;;;;;5021822;28;20049;-89
2022/07/24 02:43:33;;;;;;;10.05;7.25;;;21.40;92.10;;;;;;5023338;28;20040;-89
2022/07/24 02:45:59;;;;;;;11.35;7.63;;;21.40;92.10;;;;;;5006496;28;20392;-89
2022/07/24 02:48:25;;;;;;;9.32;7.38;;;21.40;92.20;;;;;;4987844;28;20045;-89
2022/07/24 02:50:51;;;;;;;13.70;7.47;;;21.30;92.30;;;;;;5013359;28;20029;-88
2022/07/24 02:53:17;;;;;;;10.30;6.93;;;21.30;92.30;;;;;;4996692;28;20022;-89
2022/07/24 02:55:42;;;;;;;8.60;7.65;;;21.30;92.30;;;;;;5033005;28;20455;-89
2022/07/24 02:58:08;;;;;;;12.07;8.20;;;21.30;92.40;;;;;;4991240;28;20122;-89
2022/07/24 03:00:34;;;;;;;12.70;7.82;;;21.30;92.40;;;;;;5011746;28;20028;-88
2022/07/24 03:03:00;;;;;;;10.85;7.85;;;21.20;92.40;;;;;;4991403;28;20108;-89
2022/07/24 03:05:25;;;;;;;11.73;7.45;;;21.20;92.50;;;;;;5010951;28;20029;-88
2022/07/24 03:07:51;;;;;;;11.60;8.45;;;21.20;92.60;;;;;;5004858;28;20060;-90
2022/07/24 03:10:17;;;;;;;9.60;8.00;;;21.20;92.60;;;;;;5015372;28;20371;-88
2022/07/24 03:12:43;;;;;;;9.65;7.60;;;21.20;92.70;;;;;;4981037;28;20021;-90
2022/07/24 03:15:11;;;;;;;13.30;8.27;;;21.10;92.70;;;;;;5026499;28;20018;-89
2022/07/24 03:17:37;;;;;;;10.20;8.05;;;21.10;92.80;;;;;;4997536;28;20029;-89
2022/07/24 03:20:04;;;;;;;11.55;7.97;;;21.10;92.90;;;;;;5009907;28;20013;-90
2022/07/24 03:22:30;;;;;;;9.68;7.75;;;21.10;92.90;;;;;;5014012;28;20357;-89
2022/07/24 03:24:56;;;;;;;11.55;8.77;;;21.00;93.00;;;;;;4998332;28;20032;-87
2022/07/24 03:27:21;;;;;;;11.02;8.50;;;21.00;93.20;;;;;;4995263;28;20042;-87
2022/07/24 03:29:47;;;;;;;11.68;9.15;;;21.00;93.30;;;;;;5027895;28;20434;-87
2022/07/24 03:32:12;;;;;;;13.93;8.57;;;21.00;93.30;;;;;;5015370;28;20434;-87
2022/07/24 03:34:38;;;;;;;10.73;8.02;;;21.00;93.30;;;;;;5017050;28;20064;-88
2022/07/24 03:37:04;;;;;;;9.77;8.13;;;20.90;93.30;;;;;;5019437;28;20025;-89
2022/07/24 03:39:29;;;;;;;10.90;9.60;;;20.90;93.40;;;;;;5000182;28;20029;-88
2022/07/24 03:41:55;;;;;;;13.90;9.07;;;20.90;93.40;;;;;;5017642;28;20014;-89
2022/07/24 03:44:21;;;;;;;9.90;8.85;;;20.80;93.50;;;;;;4997246;28;20455;-87
2022/07/24 03:46:47;;;;;;;10.60;8.57;;;20.80;93.60;;;;;;4997966;28;20468;-88
2022/07/24 03:49:13;;;;;;;11.15;8.40;;;20.80;93.60;;;;;;5027309;28;20063;-88
2022/07/24 03:51:38;;;;;;;11.60;8.43;;;20.80;93.80;;;;;;5015190;28;20014;-92
2022/07/24 03:54:04;;;;;;;10.65;7.68;;;20.80;93.90;;;;;;5013707;28;20383;-89
2022/07/24 03:56:30;;;;;;;11.45;8.45;;;20.70;94.00;;;;;;4995660;28;20033;-90
2022/07/24 03:58:55;;;;;;;9.93;8.13;;;20.70;94.40;;;;;;5017482;28;20032;-89
2022/07/24 04:01:22;;;;;;;9.95;8.65;;;20.70;94.20;;;;;;5013825;28;20021;-88
2022/07/24 04:03:48;;;;;;;10.25;8.07;;;20.60;94.40;;;;;;5014517;28;20022;-88
2022/07/24 04:06:14;;;;;;;12.75;8.50;;;20.60;94.60;;;;;;5014788;28;20467;-87
2022/07/24 04:08:39;;;;;;;10.55;7.60;;;20.60;94.70;;;;;;5014127;28;20036;-89
2022/07/24 04:11:07;;;;;;;10.07;8.00;;;20.60;94.80;;;;;;5022096;28;20032;-88
2022/07/24 04:13:33;;;;;;;10.73;8.35;;;20.60;95.00;;;;;;5017219;28;20463;-87
2022/07/24 04:15:59;;;;;;;10.00;8.38;;;20.50;95.10;;;;;;5001459;28;20416;-89
2022/07/24 04:18:25;;;;;;;9.95;8.05;;;20.50;95.20;;;;;;5015349;28;20017;-88
2022/07/24 04:20:52;;;;;;;10.40;8.15;;;20.50;95.30;;;;;;5013101;28;20121;-87
2022/07/24 04:23:18;;;;;;;12.07;8.65;;;20.50;95.40;;;;;;5033749;28;20052;-87
2022/07/24 04:25:43;;;;;;;11.70;8.27;;;20.50;95.60;;;;;;4989094;28;20026;-88
2022/07/24 04:28:09;;;;;;;10.95;7.53;;;20.50;95.70;;;;;;4999578;28;20076;-91
2022/07/24 04:30:35;;;;;;;13.45;8.88;;;20.50;95.80;;;;;;4999700;28;20033;-89
2022/07/24 04:33:01;;;;;;;9.30;7.72;;;20.50;95.90;;;;;;5001806;28;20026;-88
2022/07/24 04:35:27;;;;;;;11.45;7.90;;;20.40;95.90;;;;;;5016748;28;20052;-90
2022/07/24 04:37:52;;;;;;;12.38;8.85;;;20.40;96.00;;;;;;5013075;28;20041;-88
2022/07/24 04:40:18;;;;;;;11.32;9.07;;;20.40;96.10;;;;;;5009373;28;20107;-89
2022/07/24 04:42:44;;;;;;;11.90;9.20;;;20.40;96.20;;;;;;5016966;28;20053;-88
2022/07/24 04:45:11;;;;;;;12.57;10.00;;;20.40;96.30;;;;;;5014651;28;20124;-89
2022/07/24 04:47:37;;;;;;;10.88;9.68;;;20.30;96.40;;;;;;5013560;28;20562;-90
2022/07/24 04:50:04;;;;;;;10.93;9.18;;;20.30;96.50;;;;;;5015209;28;20036;-88
2022/07/24 04:52:30;;;;;;;11.35;9.77;;;20.30;96.60;;;;;;4993865;28;20880;-89
2022/07/24 04:54:55;;;;;;;11.90;9.82;;;20.30;96.70;;;;;;4998567;28;20428;-88
2022/07/24 04:57:21;;;;;;;11.93;10.07;;;20.30;97.10;;;;;;5014269;28;20033;-88
2022/07/24 04:59:47;;;;;;;13.95;10.60;;;20.30;97.00;;;;;;4995007;28;20030;-88
2022/07/24 05:02:12;;;;;;;11.27;10.07;;;20.30;97.10;;;;;;5014233;28;20019;-90
2022/07/24 05:04:38;;;;;;;12.35;10.48;;;20.30;97.20;;;;;;5001810;28;20494;-88
2022/07/24 05:07:04;;;;;;;13.27;10.35;;;20.30;97.30;;;;;;5016652;28;20065;-88
2022/07/24 05:09:30;;;;;;;13.15;11.15;;;20.30;97.40;;;;;;5004726;28;20034;-88
2022/07/24 05:11:55;;;;;;;14.25;11.93;;;20.30;97.40;;;;;;5008163;28;20037;-88
2022/07/24 05:14:21;;;;;;;15.65;12.63;;;20.30;97.50;;;;;;4987014;28;20453;-88
2022/07/24 05:16:47;;;;;;;15.10;12.50;;;20.30;97.50;;;;;;5014431;28;20513;-90
2022/07/24 05:19:13;;;;;;;15.32;12.45;;;20.30;97.60;;;;;;5019322;28;20021;-88
2022/07/24 05:21:38;;;;;;;16.08;12.65;;;20.30;97.60;;;;;;5027291;28;20034;-90
2022/07/24 05:24:05;;;;;;;15.40;13.68;;;20.30;97.80;;;;;;5031742;28;20030;-92
2022/07/24 05:26:31;;;;;;;19.55;15.57;;;20.30;97.80;;;;;;5013428;28;20073;-90
2022/07/24 05:29:02;;;;;;;16.83;15.07;;;20.40;98.00;;;;;;5013843;28;20022;-88
2022/07/24 05:31:28;;;;;;;16.15;14.35;;;20.40;98.10;;;;;;5031763;28;20056;-89
2022/07/24 05:33:53;;;;;;;16.08;14.40;;;20.40;98.30;;;;;;5015255;28;20757;-88
2022/07/24 05:36:19;;;;;;;17.52;14.60;;;20.40;98.40;;;;;;5036205;28;20021;-89
2022/07/24 05:38:45;;;;;;;19.52;14.65;;;20.40;98.50;;;;;;5034261;28;20451;-91
2022/07/24 05:41:11;;;;;;;17.48;13.80;;;20.40;98.70;;;;;;5015976;28;20029;-89
2022/07/24 05:43:38;;;;;;;17.42;13.68;;;20.40;98.80;;;;;;4994884;28;20095;-92
2022/07/24 05:46:04;;;;;;;16.98;15.18;;;20.40;98.90;;;;;;5012061;28;20128;-89
2022/07/24 05:48:30;;;;;;;18.83;16.35;;;20.50;99.10;;;;;;5007042;28;20018;-89
2022/07/24 05:50:56;;;;;;;23.45;16.80;;;20.50;99.30;;;;;;5009554;28;20029;-89
2022/07/24 05:53:22;;;;;;;18.10;16.20;;;20.50;99.50;;;;;;4988799;28;20107;-89
2022/07/24 05:55:48;;;;;;;18.75;16.75;;;20.50;99.60;;;;;;5014745;28;20028;-89
2022/07/24 05:58:13;;;;;;;19.13;16.85;;;20.50;99.70;;;;;;5014055;28;20021;-89
2022/07/24 06:00:39;;;;;;;19.52;16.65;;;20.60;99.90;;;;;;5026770;28;20854;-88
2022/07/24 06:03:05;;;;;;;20.15;16.67;;;20.60;99.90;;;;;;5015001;28;20013;-91
2022/07/24 06:05:30;;;;;;;23.25;17.42;;;20.60;99.90;;;;;;5010354;28;20039;-89
2022/07/24 06:07:56;;;;;;;19.75;16.45;;;20.60;99.90;;;;;;5014662;28;20032;-89
2022/07/24 06:10:22;;;;;;;19.92;15.07;;;20.70;99.90;;;;;;5014294;28;20021;-90
2022/07/24 06:12:47;;;;;;;20.70;15.55;;;20.70;99.90;;;;;;5018122;28;20100;-89
2022/07/24 06:15:13;;;;;;;17.08;14.23;;;20.70;99.90;;;;;;5016086;28;20040;-90
2022/07/24 06:17:40;;;;;;;18.13;14.35;;;20.70;99.90;;;;;;5016367;28;20072;-89
2022/07/24 06:20:07;;;;;;;16.23;13.30;;;20.80;99.90;;;;;;4998367;28;20116;-89
2022/07/24 06:22:33;;;;;;;19.55;13.27;;;20.80;99.90;;;;;;5030909;28;20049;-89
2022/07/24 06:24:59;;;;;;;14.95;12.38;;;20.80;99.90;;;;;;4997195;28;20033;-88
2022/07/24 06:27:24;;;;;;;15.40;12.57;;;20.90;99.90;;;;;;5012945;28;20120;-90
2022/07/24 06:29:50;;;;;;;15.13;11.55;;;20.90;99.90;;;;;;5013567;28;20045;-89
2022/07/24 06:32:15;;;;;;;13.85;12.20;;;20.90;99.90;;;;;;4998819;28;20025;-91
2022/07/24 06:34:41;;;;;;;13.95;11.73;;;21.00;99.90;;;;;;4995398;28;20455;-89
2022/07/24 06:37:07;;;;;;;15.50;12.60;;;21.00;99.90;;;;;;5021121;28;20033;-88
2022/07/24 06:39:32;;;;;;;13.80;11.93;;;21.00;99.90;;;;;;5014677;28;20455;-89
2022/07/24 06:41:58;;;;;;;16.85;13.13;;;21.10;99.90;;;;;;5021336;28;20021;-90
2022/07/24 06:44:24;;;;;;;15.68;12.32;;;21.10;99.90;;;;;;5030496;28;20017;-89
2022/07/24 06:46:50;;;;;;;15.80;11.48;;;21.20;99.90;;;;;;5034484;28;20455;-89
2022/07/24 06:49:16;;;;;;;13.98;10.45;;;21.20;99.90;;;;;;4997352;28;20045;-90
2022/07/24 06:51:42;;;;;;;11.38;10.05;;;21.20;99.90;;;;;;5010525;28;20045;-91
2022/07/24 06:54:07;;;;;;;12.02;9.48;;;21.30;99.80;;;;;;4990649;28;20044;-90
2022/07/24 06:56:33;;;;;;;13.20;9.93;;;21.30;99.70;;;;;;5010812;28;20046;-89
2022/07/24 06:58:59;;;;;;;11.88;9.25;;;21.40;99.40;;;;;;5014470;28;20025;-89
2022/07/24 07:01:25;;;;;;;13.60;9.95;;;21.40;99.10;;;;;;5014911;28;20105;-88
2022/07/24 07:03:53;;;;;;;12.13;8.57;;;21.40;98.90;;;;;;4997913;28;20443;-89
2022/07/24 07:06:19;;;;;;;14.35;9.05;;;21.50;98.90;;;;;;5008786;28;20132;-89
2022/07/24 07:08:44;;;;;;;12.00;8.85;;;21.60;98.40;;;;;;5011453;28;20022;-88
2022/07/24 07:11:10;;;;;;;12.27;8.18;;;21.60;98.10;;;;;;5006639;28;20076;-89
2022/07/24 07:13:36;;;;;;;10.73;7.55;;;21.60;98.00;;;;;;4998057;28;20121;-88
2022/07/24 07:16:02;;;;;;;12.13;8.38;;;21.70;98.10;;;;;;4985728;28;20057;-89
2022/07/24 07:18:28;;;;;;;9.52;7.28;;;21.80;97.80;;;;;;5018046;28;20040;-88
2022/07/24 07:20:53;;;;;;;9.05;7.00;;;21.80;97.60;;;;;;5003284;28;20026;-88
2022/07/24 07:23:23;;;;;;;10.77;6.90;;;21.90;97.90;;;;;;5033476;28;20057;-88
2022/07/24 07:25:49;;;;;;;8.00;6.73;;;22.00;97.50;;;;;;5000582;28;20083;-88
2022/07/24 07:28:16;;;;;;;8.27;6.15;;;22.10;97.20;;;;;;4992448;28;20281;-89
2022/07/24 07:30:41;;;;;;;10.35;7.25;;;22.20;97.00;;;;;;5030357;28;20071;-88
2022/07/24 07:33:07;;;;;;;10.82;7.55;;;22.20;96.50;;;;;;5001944;28;20017;-87
2022/07/24 07:35:33;;;;;;;10.38;6.30;;;22.20;96.00;;;;;;5017482;28;20071;-88
2022/07/24 07:37:58;;;;;;;9.80;5.05;;;22.30;95.50;;;;;;5018111;28;20049;-88
2022/07/24 07:40:25;;;;;;;7.30;5.07;;;22.40;95.40;;;;;;5001547;28;20033;-88
2022/07/24 07:42:51;;;;;;;6.97;5.00;;;22.50;95.30;;;;;;5033775;28;20029;-88
2022/07/24 07:45:17;;;;;;;7.43;5.10;;;22.60;94.40;;;;;;5017630;28;20387;-89
2022/07/24 07:47:43;;;;;;;5.55;4.07;;;22.60;93.70;;;;;;5000667;28;20037;-88
2022/07/24 07:50:11;;;;;;;6.50;3.97;;;22.70;93.40;;;;;;5033482;28;20048;-88
2022/07/24 07:52:37;;;;;;;5.75;3.63;;;22.80;93.40;;;;;;5017104;28;20030;-88
2022/07/24 07:55:03;;;;;;;5.45;3.78;;;22.90;93.50;;;;;;5035794;28;20029;-89
2022/07/24 07:57:30;;;;;;;7.70;4.57;;;23.00;93.20;;;;;;5006040;28;20061;-88
2022/07/24 07:59:56;;;;;;;7.10;4.68;;;23.10;92.50;;;;;;5019923;28;20116;-89
2022/07/24 08:02:21;;;;;;;6.50;4.10;;;23.20;92.40;;;;;;5016663;28;20542;-90
2022/07/24 08:04:47;;;;;;;6.65;3.90;;;23.20;92.20;;;;;;5014191;28;20030;-88
2022/07/24 08:07:13;;;;;;;7.05;4.10;;;23.40;92.20;;;;;;4999962;28;20055;-88
2022/07/24 08:09:39;;;;;;;6.30;3.63;;;23.40;92.10;;;;;;5022926;28;20021;-89
2022/07/24 08:12:05;;;;;;;6.03;3.20;;;23.50;92.00;;;;;;5017600;28;20029;-88
2022/07/24 08:14:31;;;;;;;6.07;3.35;;;23.60;91.80;;;;;;4999007;28;20024;-89
2022/07/24 08:16:56;;;;;;;5.03;3.70;;;23.70;91.60;;;;;;5006321;28;20430;-88
2022/07/24 08:19:22;;;;;;;5.28;3.38;;;23.80;91.30;;;;;;5029651;28;20029;-89
2022/07/24 08:21:48;;;;;;;4.88;3.25;;;23.90;91.10;;;;;;5015118;28;20048;-89
2022/07/24 08:24:20;;;;;;;5.00;3.40;;;24.00;91.00;;;;;;5010581;28;20030;-89
2022/07/24 08:26:47;;;;;;;5.30;3.38;;;24.10;90.80;;;;;;4998728;28;20041;-89
2022/07/24 08:29:13;;;;;;;4.95;3.05;;;24.20;90.60;;;;;;5013473;28;20058;-89
2022/07/24 08:31:39;;;;;;;6.57;3.53;;;24.20;90.50;;;;;;5000930;28;20026;-91
2022/07/24 08:34:05;;;;;;;6.65;3.33;;;24.30;90.40;;;;;;5000682;28;20032;-89
2022/07/24 08:36:31;;;;;;;4.57;2.95;;;24.40;89.80;;;;;;5017275;28;20040;-89
2022/07/24 08:38:57;;;;;;;4.40;2.95;;;24.50;89.00;;;;;;5011971;28;20033;-89
2022/07/24 08:41:22;;;;;;;7.03;3.05;;;24.50;88.10;;;;;;4999875;28;20103;-89
2022/07/24 08:43:48;;;;;;;4.53;3.00;;;24.60;87.60;;;;;;5018127;28;20033;-90
2022/07/24 08:46:15;;;;;;;3.28;2.65;;;24.70;87.80;;;;;;5016261;28;20045;-89
2022/07/24 08:48:45;;;;;;;3.63;2.50;;;24.80;87.80;;;;;;4999877;28;20025;-91
2022/07/24 08:51:14;;;;;;;4.30;2.75;;;24.80;87.70;;;;;;5001076;28;20378;-90
2022/07/24 08:53:42;;;;;;;3.60;2.47;;;24.90;87.50;;;;;;5017449;28;20021;-90
2022/07/24 08:56:09;;;;;;;3.67;2.53;;;25.00;86.90;;;;;;5021598;28;20024;-89
2022/07/24 08:58:39;;;;;;;3.33;2.58;;;25.10;86.50;;;;;;5012999;28;20058;-90
2022/07/24 09:01:05;;;;;;;3.33;2.47;;;25.10;85.90;;;;;;5015851;28;20073;-89
2022/07/24 09:03:45;;;;;;;4.45;2.88;;;25.20;85.50;;;;;;4999229;28;20029;-90
2022/07/24 09:06:12;;;;;;;3.22;2.40;;;25.30;85.50;;;;;;5023175;28;20052;-89
2022/07/24 09:08:42;;;;;;;5.10;2.72;;;25.40;84.90;;;;;;4985196;28;20118;-89
2022/07/24 09:11:09;;;;;;;3.97;2.60;;;25.40;83.50;;;;;;4991553;28;20033;-89
2022/07/24 09:16:24;;;;;;;3.95;2.70;;;25.50;82.50;;;;;;5032986;28;20091;-88
2022/07/24 09:19:07;;;;;;;3.40;2.38;;;25.60;82.40;;;;;;5019100;28;20083;-86
2022/07/24 09:21:35;;;;;;;3.38;2.22;;;25.60;82.10;;;;;;5005894;28;20018;-88
2022/07/24 09:24:10;;;;;;;2.95;2.17;;;25.60;80.90;;;;;;4997178;28;20045;-87
2022/07/24 09:26:45;;;;;;;3.30;2.30;;;25.70;79.90;;;;;;5014343;28;20029;-83
2022/07/24 09:29:12;;;;;;;3.13;2.30;;;25.80;79.60;;;;;;5029432;28;20029;-84
2022/07/24 09:31:59;;;;;;;3.90;2.70;;;25.80;79.80;;;;;;4997678;28;20047;-85
2022/07/24 09:34:28;;;;;;;2.80;2.22;;;25.90;80.20;;;;;;5012706;28;20431;-83
2022/07/24 09:37:07;;;;;;;4.22;2.80;;;25.90;80.40;;;;;;5026321;28;20030;-84
2022/07/24 09:39:37;;;;;;;5.65;2.75;;;26.00;80.20;;;;;;4998693;28;20045;-83
2022/07/24 09:42:05;;;;;;;3.60;2.47;;;26.00;79.60;;;;;;5028906;28;20064;-84
2022/07/24 09:44:31;;;;;;;3.72;2.38;;;26.10;79.10;;;;;;5019854;28;20857;-85
2022/07/24 09:46:58;;;;;;;4.10;2.10;;;26.10;78.70;;;;;;5012278;28;20042;-83
2022/07/24 09:49:24;;;;;;;3.80;2.00;;;26.20;78.30;;;;;;5011911;28;20449;-84
2022/07/24 09:52:05;;;;;;;3.55;2.50;;;26.20;78.10;;;;;;4994996;28;20063;-81
2022/07/24 09:54:33;;;;;;;3.20;2.00;;;26.30;78.20;;;;;;5012043;28;20442;-79
2022/07/24 09:57:34;;;;;;;3.03;2.20;;;26.30;77.70;;;;;;5005098;28;20041;-81
2022/07/24 10:00:04;;;;;;;4.07;2.15;;;26.40;77.40;;;;;;4914038;29;20044;-80
2022/07/24 10:02:32;;;;;;;2.55;1.90;;;26.50;77.20;;;;;;5009439;28;20029;-79
2022/07/24 10:05:00;;;;;;;5.40;2.42;;;26.50;76.90;;;;;;5011600;28;20051;-80
2022/07/24 10:07:27;;;;;;;3.17;1.98;;;26.50;76.50;;;;;;5010118;28;20053;-80
2022/07/24 10:09:58;;;;;;;3.72;2.20;;;26.60;77.40;;;;;;5007675;28;20017;-91
2022/07/24 10:12:29;;;;;;;2.30;2.10;;;26.70;76.70;;;;;;5020130;28;20046;-90
2022/07/24 10:14:57;;;;;;;4.53;2.13;;;26.70;76.20;;;;;;5001722;28;20493;-90
2022/07/24 10:17:53;;;;;;;2.60;2.08;;;26.80;76.10;;;;;;5011935;28;20464;-90
2022/07/24 10:20:43;;;;;;;2.80;2.00;;;26.80;76.40;;;;;;5018731;28;20029;-91
2022/07/24 10:23:18;;;;;;;4.07;2.20;;;27.00;76.50;;;;;;5015401;28;20042;-90
2022/07/24 10:25:53;;;;;;;3.92;2.33;;;27.00;76.20;;;;;;5014575;28;20280;-93
2022/07/24 10:28:39;;;;;;;3.45;2.05;;;27.10;74.70;;;;;;5019163;28;20029;-90
2022/07/24 10:31:07;;;;;;;3.72;2.15;;;27.10;72.70;;;;;;5017281;28;20026;-91
2022/07/24 10:33:34;;;;;;;3.10;1.98;;;27.10;73.40;;;;;;5016621;28;20459;-91
2022/07/24 10:36:03;;;;;;;4.43;2.20;;;27.20;73.80;;;;;;5011601;28;20112;-91
2022/07/24 10:38:39;;;;;;;3.35;1.85;;;27.20;73.80;;;;;;5028227;28;20030;-92
2022/07/24 10:41:20;;;;;;;3.58;2.13;;;27.30;73.90;;;;;;5019024;28;20034;-92
2022/07/24 10:44:13;;;;;;;3.13;2.08;;;27.40;73.30;;;;;;5021018;28;20018;-91
2022/07/24 10:47:09;;;;;;;4.90;2.30;;;27.40;72.70;;;;;;5020108;28;20041;-92
2022/07/24 10:49:46;;;;;;;3.53;2.20;;;27.50;72.90;;;;;;5019817;28;20025;-92
2022/07/24 10:52:29;;;;;;;1.98;1.77;;;27.50;73.10;;;;;;5038082;28;20014;-91
2022/07/24 10:55:19;;;;;;;3.13;2.25;;;27.60;72.60;;;;;;5052388;28;20010;-91
2022/07/24 10:58:13;;;;;;;3.15;2.08;;;27.60;72.20;;;;;;5037320;28;20029;-93
2022/07/24 11:00:45;;;;;;;3.80;2.17;;;27.70;72.20;;;;;;5048473;28;20018;-91
2022/07/24 11:03:21;;;;;;;2.80;1.98;;;27.70;72.10;;;;;;5052979;28;20036;-89
2022/07/24 11:10:54;;;;;;;2.50;2.20;;;27.90;71.10;;;;;;5074174;28;20173;-87
2022/07/24 11:13:32;;;;;;;2.17;1.90;;;27.90;71.10;;;;;;5046830;28;20418;-88
2022/07/24 11:16:23;;;;;;;2.72;2.15;;;28.00;71.40;;;;;;5058875;28;20031;-88
2022/07/24 11:18:59;;;;;;;2.80;2.22;;;28.00;71.00;;;;;;5043737;28;20024;-87
2022/07/24 11:21:30;;;;;;;2.63;2.30;;;28.10;70.30;;;;;;5047194;28;20029;-88
2022/07/24 11:26:46;;;;;;;2.63;1.98;;;28.20;71.30;;;;;;5070366;28;19908;-88
2022/07/24 11:29:27;;;;;;;4.40;2.17;;;28.30;71.00;;;;;;5052283;28;20383;-87
2022/07/24 11:32:08;;;;;;;2.35;1.83;;;28.30;70.80;;;;;;5063171;28;20018;-88
2022/07/24 11:34:35;;;;;;;3.00;2.20;;;28.40;70.00;;;;;;5053056;28;20206;-89
2022/07/24 11:37:03;;;;;;;4.68;2.20;;;28.50;69.20;;;;;;5051279;28;20463;-89
2022/07/24 11:39:40;;;;;;;2.63;2.05;;;28.50;67.80;;;;;;5039628;28;20115;-89
2022/07/24 11:42:08;;;;;;;4.05;2.67;;;28.50;67.60;;;;;;5053086;28;20032;-89
2022/07/24 11:44:36;;;;;;;4.10;2.30;;;28.60;67.00;;;;;;5058317;28;20025;-89
2022/07/24 11:47:23;;;;;;;3.78;2.30;;;28.60;67.00;;;;;;5072271;28;20029;-90
2022/07/24 11:50:00;;;;;;;5.28;2.33;;;28.60;67.90;;;;;;5036361;28;20017;-90
2022/07/24 11:52:38;;;;;;;2.97;2.40;;;28.70;68.30;;;;;;5056840;28;20032;-90
2022/07/24 11:55:13;;;;;;;3.13;2.20;;;28.80;68.10;;;;;;5040107;28;20074;-89
2022/07/24 11:57:41;;;;;;;4.10;2.50;;;28.80;68.10;;;;;;5063614;28;20083;-89
2022/07/24 12:00:27;;;;;;;3.08;2.22;;;28.90;67.70;;;;;;5054355;28;20533;-89
2022/07/24 12:02:58;;;;;;;4.10;2.25;;;28.90;68.30;;;;;;5052658;28;20028;-89
2022/07/24 12:05:37;;;;;;;2.85;1.95;;;29.00;68.30;;;;;;5072132;28;20024;-88
2022/07/24 12:08:16;;;;;;;2.38;2.13;;;29.10;68.40;;;;;;5050793;28;20070;-89
2022/07/24 12:10:42;;;;;;;3.40;2.30;;;29.10;68.50;;;;;;5050889;28;20036;-88
2022/07/24 12:13:08;;;;;;;3.08;2.40;;;29.30;68.80;;;;;;5050960;28;20024;-88
2022/07/24 12:15:38;;;;;;;3.88;2.30;;;29.30;67.60;;;;;;5061993;28;20158;-89
2022/07/24 12:18:06;;;;;;;3.78;2.13;;;29.30;67.00;;;;;;5053449;28;20506;-88
2022/07/24 12:20:40;;;;;;;2.88;2.10;;;29.40;67.10;;;;;;5056352;28;20032;-89
2022/07/24 12:23:24;;;;;;;2.65;2.17;;;29.40;67.30;;;;;;5046569;28;20025;-89
2022/07/24 12:25:50;;;;;;;5.80;2.33;;;29.50;67.00;;;;;;5050741;28;20127;-89
2022/07/24 12:28:18;;;;;;;3.22;1.80;;;29.60;66.70;;;;;;5041140;28;20111;-89
2022/07/24 12:30:49;;;;;;;3.38;2.10;;;29.70;66.50;;;;;;5052965;28;20028;-89
2022/07/24 12:33:18;;;;;;;2.97;2.20;;;29.70;66.40;;;;;;5072861;28;20028;-88
2022/07/24 12:35:56;;;;;;;3.95;2.08;;;29.80;66.40;;;;;;5056020;28;20027;-88
2022/07/24 12:38:36;;;;;;;3.50;2.10;;;29.80;66.30;;;;;;5055164;28;20028;-89
2022/07/24 12:41:07;;;;;;;3.03;2.38;;;29.90;65.20;;;;;;5067101;28;20021;-88
2022/07/24 12:43:46;;;;;;;5.00;2.05;;;29.90;64.40;;;;;;5048093;28;20019;-88
2022/07/24 12:46:12;;;;;;;2.63;2.10;;;29.90;64.70;;;;;;5058546;28;20080;-89
2022/07/24 12:48:38;;;;;;;2.30;1.83;;;30.00;65.60;;;;;;5065878;28;20459;-91
2022/07/24 12:51:12;;;;;;;2.70;2.10;;;30.10;65.60;;;;;;5070863;28;20027;-89
2022/07/24 12:53:40;;;;;;;2.95;2.05;;;30.10;64.50;;;;;;5053422;28;20016;-88
2022/07/24 12:56:08;;;;;;;4.55;2.10;;;30.10;64.50;;;;;;5057021;28;20020;-88